Ashland, Pennsylvania
Current Conditions -  °F | °C
As of 7:35 AM on Wednesday 26 Nov 2014 (Local Time) from KHZL Reporting Station
Light Snow Light Snow  
Wind Chill: -1°   Ceiling: 1800
Heat Index:   Visibility: 7mi
Dew Point: -2°   Wind: 6mph
Humidity: 75%   Direction: 30°NNE
Pressure: 30.1"   Gusts: NA
Location:  40.78°N, 76.35°W
Report Text: KHZL 261235Z AUTO 03005KT 7SM -SN BKN018 BKN025 OVC032 02/M02 A3010 RMK AO2
Loading
Personal Weather Stations






























Interactive Weather Map New forecast layout! Learn more

10-Day Weather Forecast

Advertisements
Track Severe Weather on mobile